CYYQ

Churchill Airport

Churchill, Manitoba, Canada

CYYQ 110816Z 34017KT 10SM -SN DRSN SCT010 SCT013 M19/M21 A2999 RMK SF3SC1 SLP161

Observed Flight Rules
Dec-11 @ 08:16 UTC (57 minutes ago) Visual Flight Rules
Wind Visibility Clouds Conditions
340° at 17 knots 10 miles
  • Scattered at 1,000' AGL
  • Scattered at 1,300' AGL
  • Light Snow
  • Low drifting
  • Snow
Temperatures Readings
Current -19°C / -2°F
Dewpoint -21°C / -6°F
Humidity 84%
Altimeter 29.99" Hg
Pressure 1016.1 hPa
Elevation 29
Observed Flight Rules
Dec-11 @ 08:16 UTC
(57 minutes ago)
VFR
Wind Visibility
340° at 17 knots 10 miles
Clouds
  • Scattered at 1,000' AGL
  • Scattered at 1,300' AGL
Conditions
  • Light Snow
  • Low drifting
  • Snow
Temperature Dewpoint
-19°C / -2°F -21°C / -6°F
Humidity Altimeter Pressure
84% 29.99" Hg 1016.1 hPa